ARG1865 SAWH-SAWC
Flight info
| Callsign | ARG1865 |
|---|---|
| Flight time | 1h 4m |
| Altitude | 28000 |
| Route | GRA2B GRA UW42 GAL UW52 DEVIS |
| Aircraft | B738/M-SDE2E3FGHIRWXY/LB1 |
Departure
| Time | 2026-04-26 19:18 |
|---|---|
| Airport | Ushuaia - Malvinas Argentinas International Airport (SAWH) |
Arrival
| Time | 2026-04-26 20:22 |
|---|---|
| Airport | El Calafate - Commander Armando Tola International Airport (SAWC) |
| Time | Latitude | Longitude | Altitude | Speed | Heading |
|---|---|---|---|---|---|
| 2026-04-26 18:46 | -54.84027 | -68.31176 | 82 ft | 0 kts | 349° |
| 2026-04-26 19:10 | -54.84036 | -68.31173 | 87 ft | 3 kts | 349° |
| 2026-04-26 19:10 | -54.84056 | -68.31166 | 87 ft | 3 kts | 347° |
| 2026-04-26 19:11 | -54.84076 | -68.31157 | 84 ft | 3 kts | 335° |
| 2026-04-26 19:11 | -54.84091 | -68.31141 | 85 ft | 3 kts | 292° |
| 2026-04-26 19:11 | -54.84093 | -68.31112 | 86 ft | 3 kts | 268° |
| 2026-04-26 19:11 | -54.84093 | -68.31099 | 82 ft | 0 kts | 269° |
| 2026-04-26 19:14 | -54.84093 | -68.31102 | 82 ft | 1 kts | 269° |
| 2026-04-26 19:14 | -54.84093 | -68.31108 | 82 ft | 2 kts | 269° |
| 2026-04-26 19:15 | -54.84094 | -68.31185 | 86 ft | 5 kts | 268° |
| 2026-04-26 19:15 | -54.84096 | -68.31252 | 82 ft | 6 kts | 265° |
| 2026-04-26 19:15 | -54.84112 | -68.31315 | 86 ft | 6 kts | 225° |
| 2026-04-26 19:15 | -54.84149 | -68.31328 | 84 ft | 6 kts | 180° |
| 2026-04-26 19:16 | -54.84190 | -68.31327 | 84 ft | 6 kts | 178° |
| 2026-04-26 19:16 | -54.84234 | -68.31322 | 85 ft | 6 kts | 175° |
| 2026-04-26 19:16 | -54.84279 | -68.31317 | 86 ft | 7 kts | 177° |
| 2026-04-26 19:16 | -54.84323 | -68.31313 | 87 ft | 6 kts | 177° |
| 2026-04-26 19:17 | -54.84357 | -68.31308 | 87 ft | 4 kts | 170° |
| 2026-04-26 19:17 | -54.84386 | -68.31283 | 85 ft | 6 kts | 133° |
| 2026-04-26 19:17 | -54.84393 | -68.31220 | 84 ft | 5 kts | 91° |
| 2026-04-26 19:17 | -54.84393 | -68.31154 | 87 ft | 6 kts | 86° |
| 2026-04-26 19:18 | -54.84379 | -68.30809 | 83 ft | 61 kts | 86° |
| 2026-04-26 19:18 | -54.84333 | -68.29708 | 86 ft | 120 kts | 85° |
| 2026-04-26 19:18 | -54.84263 | -68.28012 | 254 ft | 155 kts | 87° |
| 2026-04-26 19:18 | -54.84330 | -68.26034 | 813 ft | 171 kts | 98° |
| 2026-04-26 19:19 | -54.84679 | -68.24043 | 1557 ft | 172 kts | 112° |
| 2026-04-26 19:19 | -54.85047 | -68.22071 | 2351 ft | 175 kts | 102° |
| 2026-04-26 19:19 | -54.85318 | -68.19949 | 2939 ft | 187 kts | 99° |
| 2026-04-26 19:19 | -54.85632 | -68.17689 | 3422 ft | 200 kts | 101° |
| 2026-04-26 19:20 | -54.86019 | -68.15301 | 3965 ft | 212 kts | 105° |
| 2026-04-26 19:20 | -54.86310 | -68.13641 | 4313 ft | 221 kts | 106° |
| 2026-04-26 19:20 | -54.86950 | -68.10093 | 5003 ft | 243 kts | 107° |
| 2026-04-26 19:20 | -54.87475 | -68.07176 | 5582 ft | 263 kts | 108° |
| 2026-04-26 19:21 | -54.88033 | -68.04062 | 6266 ft | 278 kts | 108° |
| 2026-04-26 19:21 | -54.88617 | -68.00771 | 6898 ft | 293 kts | 108° |
| 2026-04-26 19:21 | -54.89221 | -67.97322 | 7618 ft | 304 kts | 108° |
| 2026-04-26 19:21 | -54.89839 | -67.93787 | 8456 ft | 309 kts | 108° |
| 2026-04-26 19:22 | -54.90467 | -67.90201 | 9324 ft | 313 kts | 107° |
| 2026-04-26 19:22 | -54.90683 | -67.86412 | 10075 ft | 321 kts | 83° |
| 2026-04-26 19:22 | -54.89995 | -67.82732 | 10633 ft | 326 kts | 54° |
| 2026-04-26 19:22 | -54.88406 | -67.79963 | 11134 ft | 328 kts | 30° |
| 2026-04-26 19:23 | -54.86429 | -67.77873 | 11617 ft | 338 kts | 20° |
| 2026-04-26 19:23 | -54.84180 | -67.76539 | 12031 ft | 347 kts | 7° |
| 2026-04-26 19:23 | -54.81764 | -67.76071 | 12573 ft | 352 kts | 356° |
| 2026-04-26 19:23 | -54.79300 | -67.76042 | 13259 ft | 357 kts | 356° |
| 2026-04-26 19:24 | -54.76805 | -67.75999 | 13957 ft | 361 kts | 356° |
| 2026-04-26 19:24 | -54.74287 | -67.75955 | 14614 ft | 364 kts | 356° |
| 2026-04-26 19:24 | -54.69179 | -67.75885 | 15908 ft | 371 kts | 356° |
| 2026-04-26 19:25 | -54.66589 | -67.75858 | 16528 ft | 375 kts | 355° |
| 2026-04-26 19:25 | -54.64845 | -67.75838 | 16936 ft | 378 kts | 356° |
| 2026-04-26 19:25 | -54.61332 | -67.75787 | 17765 ft | 381 kts | 355° |
| 2026-04-26 19:25 | -54.58669 | -67.75747 | 18295 ft | 386 kts | 356° |
| 2026-04-26 19:26 | -54.55978 | -67.75703 | 18837 ft | 389 kts | 356° |
| 2026-04-26 19:26 | -54.53269 | -67.75657 | 19350 ft | 391 kts | 355° |
| 2026-04-26 19:26 | -54.50540 | -67.75615 | 19810 ft | 395 kts | 355° |
| 2026-04-26 19:26 | -54.47779 | -67.75577 | 20272 ft | 399 kts | 355° |
| 2026-04-26 19:27 | -54.45007 | -67.75544 | 20749 ft | 402 kts | 355° |
| 2026-04-26 19:27 | -54.42206 | -67.75508 | 21229 ft | 405 kts | 355° |
| 2026-04-26 19:27 | -54.39385 | -67.75466 | 21686 ft | 408 kts | 355° |
| 2026-04-26 19:27 | -54.36544 | -67.75424 | 22136 ft | 410 kts | 355° |
| 2026-04-26 19:28 | -54.33684 | -67.75386 | 22581 ft | 414 kts | 355° |
| 2026-04-26 19:28 | -54.30803 | -67.75343 | 23039 ft | 416 kts | 355° |
| 2026-04-26 19:28 | -54.27904 | -67.75298 | 23480 ft | 419 kts | 355° |
| 2026-04-26 19:28 | -54.24986 | -67.75253 | 23831 ft | 422 kts | 355° |
| 2026-04-26 19:29 | -54.22050 | -67.75210 | 24158 ft | 424 kts | 355° |
| 2026-04-26 19:29 | -54.19101 | -67.75167 | 24493 ft | 426 kts | 355° |
| 2026-04-26 19:29 | -54.16134 | -67.75125 | 24807 ft | 429 kts | 355° |
| 2026-04-26 19:29 | -54.13139 | -67.75086 | 25101 ft | 433 kts | 355° |
| 2026-04-26 19:30 | -54.10131 | -67.75044 | 25482 ft | 434 kts | 355° |
| 2026-04-26 19:30 | -54.07120 | -67.75000 | 25907 ft | 434 kts | 355° |
| 2026-04-26 19:30 | -54.04110 | -67.74956 | 26345 ft | 433 kts | 355° |
| 2026-04-26 19:30 | -54.02105 | -67.74927 | 26634 ft | 433 kts | 355° |
| 2026-04-26 19:31 | -53.98099 | -67.74871 | 27206 ft | 432 kts | 355° |
| 2026-04-26 19:31 | -53.95098 | -67.74830 | 27628 ft | 432 kts | 355° |
| 2026-04-26 19:31 | -53.92096 | -67.74788 | 27937 ft | 434 kts | 355° |
| 2026-04-26 19:31 | -53.89067 | -67.74748 | 27943 ft | 436 kts | 355° |
| 2026-04-26 19:32 | -53.86066 | -67.74703 | 27950 ft | 429 kts | 355° |
| 2026-04-26 19:32 | -53.83089 | -67.74659 | 27952 ft | 430 kts | 355° |
| 2026-04-26 19:32 | -53.80100 | -67.74672 | 27950 ft | 430 kts | 351° |
| 2026-04-26 19:32 | -53.77180 | -67.75383 | 27956 ft | 421 kts | 340° |
| 2026-04-26 19:33 | -53.74456 | -67.76951 | 27960 ft | 410 kts | 330° |
| 2026-04-26 19:33 | -53.71853 | -67.78899 | 27957 ft | 410 kts | 329° |
| 2026-04-26 19:33 | -53.69265 | -67.80906 | 27937 ft | 410 kts | 329° |
| 2026-04-26 19:33 | -53.66697 | -67.82921 | 27942 ft | 407 kts | 329° |
| 2026-04-26 19:34 | -53.64123 | -67.84925 | 27942 ft | 408 kts | 329° |
| 2026-04-26 19:34 | -53.61547 | -67.86901 | 27942 ft | 409 kts | 330° |
| 2026-04-26 19:34 | -53.58963 | -67.88866 | 27941 ft | 408 kts | 330° |
| 2026-04-26 19:34 | -53.56379 | -67.90832 | 27940 ft | 409 kts | 330° |
| 2026-04-26 19:35 | -53.53797 | -67.92803 | 27942 ft | 408 kts | 330° |
| 2026-04-26 19:35 | -53.51220 | -67.94774 | 27940 ft | 408 kts | 330° |
| 2026-04-26 19:35 | -53.48640 | -67.96745 | 27938 ft | 408 kts | 330° |
| 2026-04-26 19:35 | -53.46062 | -67.98708 | 27914 ft | 407 kts | 330° |
| 2026-04-26 19:36 | -53.43491 | -68.00658 | 27932 ft | 406 kts | 330° |
| 2026-04-26 19:36 | -53.41777 | -68.01958 | 27943 ft | 407 kts | 330° |
| 2026-04-26 19:36 | -53.38347 | -68.04560 | 27942 ft | 407 kts | 330° |
| 2026-04-26 19:36 | -53.35774 | -68.06509 | 27941 ft | 407 kts | 330° |
| 2026-04-26 19:37 | -53.33200 | -68.08454 | 27941 ft | 407 kts | 330° |
| 2026-04-26 19:37 | -53.30627 | -68.10396 | 27945 ft | 406 kts | 330° |
| 2026-04-26 19:37 | -53.28053 | -68.12336 | 27951 ft | 407 kts | 330° |
| 2026-04-26 19:37 | -53.25479 | -68.14274 | 27941 ft | 407 kts | 330° |
| 2026-04-26 19:38 | -53.22905 | -68.16209 | 27925 ft | 406 kts | 330° |
| 2026-04-26 19:38 | -53.20340 | -68.18134 | 27942 ft | 404 kts | 330° |
| 2026-04-26 19:38 | -53.17777 | -68.20057 | 27942 ft | 406 kts | 330° |
| 2026-04-26 19:38 | -53.15206 | -68.21984 | 27948 ft | 406 kts | 330° |
| 2026-04-26 19:39 | -53.12640 | -68.23904 | 27947 ft | 405 kts | 330° |
| 2026-04-26 19:39 | -53.10074 | -68.25819 | 27948 ft | 405 kts | 330° |
| 2026-04-26 19:39 | -53.07506 | -68.27735 | 27950 ft | 405 kts | 330° |
| 2026-04-26 19:39 | -53.04939 | -68.29648 | 27952 ft | 405 kts | 330° |
| 2026-04-26 19:40 | -53.02366 | -68.31562 | 27956 ft | 405 kts | 330° |
| 2026-04-26 19:40 | -52.99806 | -68.33464 | 27936 ft | 404 kts | 330° |
| 2026-04-26 19:40 | -52.97251 | -68.35359 | 27949 ft | 402 kts | 330° |
| 2026-04-26 19:40 | -52.94696 | -68.37253 | 27962 ft | 404 kts | 330° |
| 2026-04-26 19:41 | -52.92132 | -68.39153 | 27960 ft | 405 kts | 330° |
| 2026-04-26 19:41 | -52.89571 | -68.41046 | 27957 ft | 403 kts | 330° |
| 2026-04-26 19:41 | -52.87008 | -68.42936 | 27966 ft | 403 kts | 330° |
| 2026-04-26 19:41 | -52.85301 | -68.44194 | 27969 ft | 404 kts | 330° |
| 2026-04-26 19:42 | -52.81895 | -68.46702 | 27974 ft | 403 kts | 330° |
| 2026-04-26 19:42 | -52.79330 | -68.48589 | 27973 ft | 403 kts | 330° |
| 2026-04-26 19:42 | -52.76774 | -68.50470 | 27966 ft | 403 kts | 330° |
| 2026-04-26 19:42 | -52.74218 | -68.52349 | 27970 ft | 403 kts | 330° |
| 2026-04-26 19:43 | -52.71659 | -68.54227 | 27969 ft | 403 kts | 330° |
| 2026-04-26 19:43 | -52.69103 | -68.56099 | 27972 ft | 403 kts | 330° |
| 2026-04-26 19:43 | -52.66544 | -68.57971 | 27978 ft | 403 kts | 330° |
| 2026-04-26 19:43 | -52.63985 | -68.59842 | 27979 ft | 403 kts | 330° |
| 2026-04-26 19:44 | -52.61427 | -68.61709 | 27980 ft | 403 kts | 330° |
| 2026-04-26 19:44 | -52.58870 | -68.63573 | 27986 ft | 403 kts | 330° |
| 2026-04-26 19:44 | -52.56312 | -68.65435 | 27986 ft | 403 kts | 330° |
| 2026-04-26 19:44 | -52.53761 | -68.67290 | 27974 ft | 402 kts | 331° |
| 2026-04-26 19:45 | -52.51204 | -68.69147 | 27980 ft | 402 kts | 331° |
| 2026-04-26 19:45 | -52.48651 | -68.70998 | 27988 ft | 402 kts | 331° |
| 2026-04-26 19:45 | -52.46096 | -68.72848 | 27991 ft | 402 kts | 331° |
| 2026-04-26 19:45 | -52.43543 | -68.74696 | 27990 ft | 402 kts | 331° |
| 2026-04-26 19:46 | -52.40989 | -68.76541 | 27994 ft | 402 kts | 331° |
| 2026-04-26 19:46 | -52.38437 | -68.78382 | 27992 ft | 402 kts | 331° |
| 2026-04-26 19:46 | -52.35884 | -68.80221 | 27994 ft | 402 kts | 331° |
| 2026-04-26 19:46 | -52.33330 | -68.82059 | 27994 ft | 402 kts | 331° |
| 2026-04-26 19:47 | -52.30776 | -68.83895 | 27991 ft | 402 kts | 331° |
| 2026-04-26 19:47 | -52.29074 | -68.85117 | 27999 ft | 402 kts | 331° |
| 2026-04-26 19:47 | -52.23111 | -68.89389 | 28006 ft | 402 kts | 331° |
| 2026-04-26 19:48 | -52.18002 | -68.93042 | 28003 ft | 402 kts | 331° |
| 2026-04-26 19:48 | -52.12892 | -68.96686 | 28007 ft | 402 kts | 331° |
| 2026-04-26 19:49 | -52.07781 | -69.00319 | 27995 ft | 402 kts | 331° |
| 2026-04-26 19:49 | -52.02665 | -69.03949 | 28008 ft | 402 kts | 331° |
| 2026-04-26 19:50 | -51.97552 | -69.07567 | 28010 ft | 402 kts | 331° |
| 2026-04-26 19:50 | -51.92440 | -69.11174 | 28014 ft | 402 kts | 331° |
| 2026-04-26 19:51 | -51.87325 | -69.14778 | 28006 ft | 402 kts | 331° |
| 2026-04-26 19:51 | -51.82203 | -69.18371 | 28005 ft | 403 kts | 331° |
| 2026-04-26 19:52 | -51.77074 | -69.21966 | 28002 ft | 402 kts | 331° |
| 2026-04-26 19:52 | -51.71945 | -69.25549 | 28006 ft | 402 kts | 331° |
| 2026-04-26 19:53 | -51.66816 | -69.29123 | 28009 ft | 402 kts | 331° |
| 2026-04-26 19:53 | -51.61858 | -69.33150 | 28009 ft | 395 kts | 319° |
| 2026-04-26 19:54 | -51.59843 | -69.36037 | 28015 ft | 386 kts | 308° |
| 2026-04-26 19:54 | -51.58173 | -69.39395 | 28023 ft | 386 kts | 303° |
| 2026-04-26 19:54 | -51.54963 | -69.46296 | 28020 ft | 385 kts | 303° |
| 2026-04-26 19:55 | -51.51759 | -69.53186 | 28009 ft | 386 kts | 303° |
| 2026-04-26 19:55 | -51.48519 | -69.60035 | 28018 ft | 387 kts | 303° |
| 2026-04-26 19:56 | -51.45290 | -69.66870 | 27996 ft | 386 kts | 303° |
| 2026-04-26 19:56 | -51.43668 | -69.70314 | 27994 ft | 389 kts | 303° |
| 2026-04-26 19:56 | -51.42037 | -69.73768 | 27995 ft | 390 kts | 303° |
| 2026-04-26 19:57 | -51.40406 | -69.77210 | 27999 ft | 387 kts | 303° |
| 2026-04-26 19:57 | -51.38778 | -69.80642 | 27994 ft | 387 kts | 303° |
| 2026-04-26 19:57 | -51.37152 | -69.84057 | 27995 ft | 387 kts | 303° |
| 2026-04-26 19:57 | -51.35523 | -69.87471 | 27993 ft | 387 kts | 303° |
| 2026-04-26 19:58 | -51.33897 | -69.90884 | 27990 ft | 387 kts | 303° |
| 2026-04-26 19:58 | -51.32271 | -69.94298 | 27986 ft | 386 kts | 303° |
| 2026-04-26 19:58 | -51.30641 | -69.97715 | 27981 ft | 387 kts | 303° |
| 2026-04-26 19:58 | -51.29015 | -70.01113 | 27986 ft | 387 kts | 303° |
| 2026-04-26 19:59 | -51.27383 | -70.04517 | 27973 ft | 387 kts | 303° |
| 2026-04-26 19:59 | -51.25748 | -70.07926 | 27979 ft | 388 kts | 303° |
| 2026-04-26 19:59 | -51.24113 | -70.11329 | 27982 ft | 385 kts | 303° |
| 2026-04-26 19:59 | -51.22492 | -70.14697 | 27984 ft | 383 kts | 303° |
| 2026-04-26 20:00 | -51.20869 | -70.18071 | 27987 ft | 386 kts | 303° |
| 2026-04-26 20:00 | -51.19235 | -70.21464 | 27986 ft | 387 kts | 303° |
| 2026-04-26 20:00 | -51.17597 | -70.24858 | 27974 ft | 387 kts | 304° |
| 2026-04-26 20:00 | -51.15958 | -70.28244 | 27974 ft | 385 kts | 304° |
| 2026-04-26 20:01 | -51.14326 | -70.31615 | 27974 ft | 385 kts | 304° |
| 2026-04-26 20:01 | -51.12693 | -70.34986 | 27971 ft | 385 kts | 304° |
| 2026-04-26 20:01 | -51.11062 | -70.38349 | 27970 ft | 385 kts | 304° |
| 2026-04-26 20:01 | -51.09428 | -70.41711 | 27951 ft | 385 kts | 304° |
| 2026-04-26 20:02 | -51.07795 | -70.45065 | 27955 ft | 385 kts | 304° |
| 2026-04-26 20:02 | -51.06158 | -70.48423 | 27958 ft | 385 kts | 304° |
| 2026-04-26 20:02 | -51.04488 | -70.51744 | 27964 ft | 386 kts | 306° |
| 2026-04-26 20:02 | -51.03305 | -70.53885 | 27973 ft | 387 kts | 308° |
| 2026-04-26 20:03 | -51.00828 | -70.58037 | 27758 ft | 390 kts | 310° |
| 2026-04-26 20:03 | -50.98964 | -70.61138 | 27245 ft | 389 kts | 309° |
| 2026-04-26 20:03 | -50.97134 | -70.64284 | 26786 ft | 386 kts | 308° |
| 2026-04-26 20:03 | -50.95347 | -70.67437 | 26343 ft | 384 kts | 308° |
| 2026-04-26 20:04 | -50.93577 | -70.70567 | 25910 ft | 382 kts | 308° |
| 2026-04-26 20:04 | -50.91801 | -70.73670 | 25451 ft | 380 kts | 308° |
| 2026-04-26 20:04 | -50.90023 | -70.76741 | 25038 ft | 378 kts | 309° |
| 2026-04-26 20:04 | -50.88252 | -70.79791 | 24616 ft | 376 kts | 309° |
| 2026-04-26 20:05 | -50.86491 | -70.82829 | 24192 ft | 374 kts | 309° |
| 2026-04-26 20:05 | -50.84740 | -70.85856 | 23767 ft | 373 kts | 309° |
| 2026-04-26 20:05 | -50.82994 | -70.88877 | 23316 ft | 372 kts | 309° |
| 2026-04-26 20:05 | -50.81256 | -70.91874 | 22862 ft | 369 kts | 309° |
| 2026-04-26 20:06 | -50.79531 | -70.94843 | 22430 ft | 366 kts | 309° |
| 2026-04-26 20:06 | -50.77818 | -70.97783 | 22014 ft | 363 kts | 309° |
| 2026-04-26 20:06 | -50.76121 | -71.00693 | 21591 ft | 359 kts | 309° |
| 2026-04-26 20:06 | -50.74441 | -71.03573 | 21195 ft | 356 kts | 309° |
| 2026-04-26 20:07 | -50.72775 | -71.06425 | 20762 ft | 352 kts | 309° |
| 2026-04-26 20:07 | -50.71126 | -71.09252 | 20385 ft | 349 kts | 308° |
| 2026-04-26 20:07 | -50.69489 | -71.12055 | 20001 ft | 347 kts | 309° |
| 2026-04-26 20:07 | -50.67863 | -71.14833 | 19605 ft | 344 kts | 309° |
| 2026-04-26 20:08 | -50.66245 | -71.17589 | 19211 ft | 342 kts | 309° |
| 2026-04-26 20:08 | -50.64639 | -71.20324 | 18828 ft | 339 kts | 309° |
| 2026-04-26 20:08 | -50.63045 | -71.23039 | 18435 ft | 337 kts | 309° |
| 2026-04-26 20:08 | -50.61461 | -71.25732 | 18041 ft | 335 kts | 309° |
| 2026-04-26 20:09 | -50.59891 | -71.28400 | 17637 ft | 331 kts | 309° |
| 2026-04-26 20:09 | -50.58338 | -71.31034 | 17254 ft | 327 kts | 309° |
| 2026-04-26 20:09 | -50.56802 | -71.33633 | 16887 ft | 323 kts | 309° |
| 2026-04-26 20:09 | -50.55287 | -71.36199 | 16526 ft | 319 kts | 309° |
| 2026-04-26 20:10 | -50.53790 | -71.38732 | 16145 ft | 315 kts | 309° |
| 2026-04-26 20:10 | -50.52313 | -71.41230 | 15805 ft | 311 kts | 309° |
| 2026-04-26 20:10 | -50.50855 | -71.43693 | 15450 ft | 306 kts | 309° |
| 2026-04-26 20:10 | -50.49416 | -71.46119 | 15116 ft | 302 kts | 310° |
| 2026-04-26 20:11 | -50.47994 | -71.48514 | 14777 ft | 299 kts | 310° |
| 2026-04-26 20:11 | -50.46592 | -71.50875 | 14430 ft | 294 kts | 310° |
| 2026-04-26 20:11 | -50.45209 | -71.53199 | 14110 ft | 290 kts | 310° |
| 2026-04-26 20:12 | -50.42496 | -71.57755 | 13439 ft | 283 kts | 310° |
| 2026-04-26 20:12 | -50.41168 | -71.59983 | 13101 ft | 278 kts | 310° |
| 2026-04-26 20:12 | -50.39869 | -71.62159 | 12919 ft | 270 kts | 311° |
| 2026-04-26 20:12 | -50.38574 | -71.64321 | 12921 ft | 277 kts | 311° |
| 2026-04-26 20:13 | -50.37260 | -71.66517 | 12616 ft | 276 kts | 311° |
| 2026-04-26 20:13 | -50.35949 | -71.68706 | 11901 ft | 276 kts | 311° |
| 2026-04-26 20:13 | -50.34652 | -71.70866 | 11437 ft | 266 kts | 311° |
| 2026-04-26 20:13 | -50.33416 | -71.72916 | 11065 ft | 255 kts | 311° |
| 2026-04-26 20:14 | -50.32210 | -71.74902 | 10582 ft | 250 kts | 314° |
| 2026-04-26 20:14 | -50.30796 | -71.76390 | 10277 ft | 244 kts | 332° |
| 2026-04-26 20:14 | -50.29176 | -71.77060 | 9988 ft | 242 kts | 349° |
| 2026-04-26 20:14 | -50.27498 | -71.76849 | 9597 ft | 246 kts | 7° |
| 2026-04-26 20:15 | -50.25909 | -71.75760 | 9097 ft | 255 kts | 25° |
| 2026-04-26 20:15 | -50.24497 | -71.74053 | 8621 ft | 260 kts | 37° |
| 2026-04-26 20:15 | -50.23295 | -71.71925 | 8165 ft | 264 kts | 48° |
| 2026-04-26 20:15 | -50.22359 | -71.69449 | 7706 ft | 268 kts | 64° |
| 2026-04-26 20:16 | -50.22162 | -71.66552 | 7238 ft | 275 kts | 100° |
| 2026-04-26 20:16 | -50.22985 | -71.63929 | 6848 ft | 270 kts | 135° |
| 2026-04-26 20:16 | -50.24509 | -71.62393 | 6436 ft | 258 kts | 168° |
| 2026-04-26 20:16 | -50.26234 | -71.62253 | 5985 ft | 244 kts | 198° |
| 2026-04-26 20:17 | -50.27713 | -71.63347 | 5514 ft | 232 kts | 225° |
| 2026-04-26 20:17 | -50.28671 | -71.65284 | 5050 ft | 224 kts | 250° |
| 2026-04-26 20:17 | -50.28981 | -71.67612 | 4564 ft | 219 kts | 274° |
| 2026-04-26 20:17 | -50.28817 | -71.69159 | 4256 ft | 217 kts | 290° |
| 2026-04-26 20:18 | -50.27912 | -71.71941 | 3633 ft | 216 kts | 301° |
| 2026-04-26 20:18 | -50.27158 | -71.73978 | 3148 ft | 218 kts | 302° |
| 2026-04-26 20:18 | -50.26471 | -71.76078 | 2918 ft | 219 kts | 288° |
| 2026-04-26 20:18 | -50.26375 | -71.78514 | 2918 ft | 229 kts | 269° |
| 2026-04-26 20:19 | -50.26528 | -71.80961 | 2919 ft | 227 kts | 267° |
| 2026-04-26 20:19 | -50.26692 | -71.83428 | 2923 ft | 223 kts | 267° |
| 2026-04-26 20:19 | -50.26835 | -71.85658 | 2867 ft | 192 kts | 268° |
| 2026-04-26 20:19 | -50.26957 | -71.87648 | 2626 ft | 177 kts | 268° |
| 2026-04-26 20:20 | -50.27068 | -71.89490 | 2403 ft | 165 kts | 267° |
| 2026-04-26 20:20 | -50.27173 | -71.91218 | 2202 ft | 155 kts | 268° |
| 2026-04-26 20:20 | -50.27271 | -71.92822 | 1999 ft | 143 kts | 267° |
| 2026-04-26 20:20 | -50.27363 | -71.94360 | 1814 ft | 147 kts | 266° |
| 2026-04-26 20:21 | -50.27458 | -71.95925 | 1596 ft | 141 kts | 265° |
| 2026-04-26 20:21 | -50.27548 | -71.97432 | 1413 ft | 140 kts | 265° |
| 2026-04-26 20:21 | -50.27640 | -71.98961 | 1227 ft | 143 kts | 264° |
| 2026-04-26 20:21 | -50.27732 | -72.00509 | 1061 ft | 143 kts | 264° |
| 2026-04-26 20:22 | -50.27819 | -72.02045 | 889 ft | 143 kts | 264° |
| 2026-04-26 20:22 | -50.27913 | -72.03587 | 693 ft | 142 kts | 263° |
| 2026-04-26 20:22 | -50.28005 | -72.05039 | 644 ft | 115 kts | 264° |
| 2026-04-26 20:22 | -50.28045 | -72.05678 | 641 ft | 23 kts | 265° |
| 2026-04-26 20:23 | -50.28039 | -72.05827 | 644 ft | 10 kts | 284° |
| 2026-04-26 20:23 | -50.28044 | -72.05897 | 644 ft | 5 kts | 215° |
| 2026-04-26 20:23 | -50.28065 | -72.05851 | 643 ft | 8 kts | 80° |
| 2026-04-26 20:23 | -50.28048 | -72.05736 | 643 ft | 14 kts | 78° |
| 2026-04-26 20:24 | -50.28035 | -72.05574 | 641 ft | 15 kts | 84° |
| 2026-04-26 20:24 | -50.28044 | -72.05444 | 644 ft | 9 kts | 131° |
| 2026-04-26 20:24 | -50.28096 | -72.05413 | 643 ft | 8 kts | 172° |
| 2026-04-26 20:24 | -50.28150 | -72.05407 | 642 ft | 8 kts | 178° |
| 2026-04-26 20:25 | -50.28201 | -72.05403 | 642 ft | 7 kts | 175° |
| 2026-04-26 20:25 | -50.28233 | -72.05399 | 642 ft | 7 kts | 176° |
| 2026-04-26 20:25 | -50.28291 | -72.05393 | 644 ft | 6 kts | 175° |
| 2026-04-26 20:25 | -50.28325 | -72.05388 | 642 ft | 3 kts | 174° |
| 2026-04-26 20:26 | -50.28337 | -72.05386 | 642 ft | 1 kts | 174° |
| 2026-04-26 20:26 | -50.28340 | -72.05385 | 642 ft | 0 kts | 174° |